Time;durP1;ratioP1;P1;durP2;ratioP2;P2;SDS_P1;SDS_P2;PMS_P1;PMS_P2;Temp;Humidity;BMP_temperature;BMP_pressure;BME280_temperature;BME280_humidity;BME280_pressure;Samples;Min_cycle;Max_cycle;Signal;HPM_P1;HPM_P2
2024/04/18 00:02:00;;;;;;;62.67;25.53;;;2.50;99.90;;;;;;5536561;25;20588;-66
2024/04/18 00:04:46;;;;;;;65.53;27.50;;;2.50;99.90;;;;;;5549530;25;20302;-67
2024/04/18 00:07:35;;;;;;;71.90;29.53;;;2.50;99.90;;;;;;5544436;25;20227;-66
2024/04/18 00:10:22;;;;;;;70.87;28.73;;;2.50;99.90;;;;;;5549152;25;20237;-66
2024/04/18 00:13:14;;;;;;;74.60;28.60;;;2.50;99.90;;;;;;5534653;25;20276;-66
2024/04/18 00:16:01;;;;;;;70.43;29.60;;;2.50;99.90;;;;;;5553847;25;20317;-66
2024/04/18 00:18:50;;;;;;;70.80;28.77;;;2.50;99.90;;;;;;5544534;25;20292;-66
2024/04/18 00:21:37;;;;;;;85.10;32.80;;;2.50;99.90;;;;;;5551474;25;20234;-66
2024/04/18 00:24:26;;;;;;;85.83;31.47;;;2.40;99.90;;;;;;5539109;25;20618;-66
2024/04/18 00:27:13;;;;;;;86.73;31.30;;;2.40;99.90;;;;;;5543666;25;20317;-66
2024/04/18 00:30:05;;;;;;;85.63;30.23;;;2.40;99.90;;;;;;5550648;25;20649;-65
2024/04/18 00:32:52;;;;;;;87.90;30.40;;;2.40;99.90;;;;;;5544570;25;20290;-66
2024/04/18 00:35:41;;;;;;;89.40;31.63;;;2.40;99.90;;;;;;5545560;25;20270;-66
2024/04/18 00:38:29;;;;;;;83.63;28.77;;;2.30;99.90;;;;;;5531502;25;20246;-66
2024/04/18 00:41:18;;;;;;;89.17;29.07;;;2.30;99.90;;;;;;5541151;25;20223;-66
2024/04/18 00:44:05;;;;;;;112.77;31.13;;;2.30;99.90;;;;;;5542462;25;20326;-66
2024/04/18 00:46:57;;;;;;;91.30;31.27;;;2.30;99.90;;;;;;5550702;25;20276;-66
2024/04/18 00:49:44;;;;;;;110.13;30.93;;;2.20;99.90;;;;;;5545363;25;20226;-66
2024/04/18 00:52:33;;;;;;;99.20;31.23;;;2.20;99.90;;;;;;5546873;25;20772;-66
2024/04/18 00:55:20;;;;;;;89.10;30.07;;;2.00;99.90;;;;;;5530631;25;20245;-66
2024/04/18 00:58:10;;;;;;;94.97;30.87;;;2.10;99.90;;;;;;5501805;26;20220;-66
2024/04/18 01:00:56;;;;;;;86.90;29.43;;;2.00;99.90;;;;;;5504579;26;20240;-66
2024/04/18 01:03:48;;;;;;;96.43;29.40;;;2.00;99.90;;;;;;5507409;26;20765;-66
2024/04/18 01:06:35;;;;;;;84.40;29.10;;;1.90;99.90;;;;;;5509097;26;20239;-66
2024/04/18 01:09:24;;;;;;;100.03;28.53;;;2.00;99.90;;;;;;5507727;26;20228;-66
2024/04/18 01:12:11;;;;;;;81.23;27.40;;;2.00;99.90;;;;;;5506052;26;20648;-66
2024/04/18 01:15:00;;;;;;;95.60;29.07;;;2.00;99.90;;;;;;5506345;26;20489;-66
2024/04/18 01:17:47;;;;;;;85.20;26.53;;;2.00;99.90;;;;;;5502330;26;20277;-67
2024/04/18 01:20:39;;;;;;;72.87;25.93;;;1.90;99.90;;;;;;5490660;26;20609;-66
2024/04/18 01:23:26;;;;;;;80.77;27.00;;;1.90;99.90;;;;;;5503376;26;20621;-66
2024/04/18 01:26:21;;;;;;;75.90;24.67;;;1.90;99.90;;;;;;5506795;26;20281;-66
2024/04/18 01:29:07;;;;;;;78.70;26.33;;;1.90;99.90;;;;;;5511383;26;20223;-66
2024/04/18 01:31:57;;;;;;;74.87;24.13;;;1.90;99.90;;;;;;5509626;26;20245;-66
2024/04/18 01:34:43;;;;;;;76.20;24.43;;;1.90;99.90;;;;;;5503143;26;20587;-66
2024/04/18 01:37:32;;;;;;;74.27;24.50;;;1.90;99.90;;;;;;5515645;26;20283;-66
2024/04/18 01:40:19;;;;;;;77.97;26.67;;;1.90;99.90;;;;;;5498493;26;20273;-66
2024/04/18 01:43:12;;;;;;;79.77;28.10;;;1.80;99.90;;;;;;5507804;26;20269;-66
2024/04/18 01:45:58;;;;;;;85.67;27.27;;;1.90;99.90;;;;;;5505742;26;20236;-66
2024/04/18 01:48:48;;;;;;;71.23;24.90;;;1.80;99.90;;;;;;5514478;26;20237;-66
2024/04/18 01:51:35;;;;;;;65.13;24.77;;;1.90;99.90;;;;;;5486664;26;20593;-68
2024/04/18 01:54:24;;;;;;;68.43;25.60;;;1.90;99.90;;;;;;5504910;26;20757;-66
2024/04/18 01:57:11;;;;;;;67.73;23.07;;;1.80;99.90;;;;;;5507752;26;20287;-66
2024/04/18 02:00:03;;;;;;;67.03;23.93;;;1.80;99.90;;;;;;5496801;26;20227;-66
2024/04/18 02:02:50;;;;;;;70.40;23.33;;;1.80;99.90;;;;;;5506364;26;20336;-66
2024/04/18 02:05:39;;;;;;;59.00;23.80;;;1.70;99.90;;;;;;5496515;26;20220;-66
2024/04/18 02:08:26;;;;;;;60.97;21.77;;;1.70;99.90;;;;;;5492426;26;20291;-66
2024/04/18 02:11:15;;;;;;;60.97;22.43;;;1.60;99.90;;;;;;5510221;26;20227;-66
2024/04/18 02:14:02;;;;;;;58.03;22.60;;;1.50;99.90;;;;;;5503029;26;20227;-66
2024/04/18 02:16:54;;;;;;;57.43;22.17;;;1.40;99.90;;;;;;5487587;26;20336;-66
2024/04/18 02:19:41;;;;;;;51.40;21.07;;;1.30;99.90;;;;;;5502260;26;20227;-66
2024/04/18 02:22:30;;;;;;;52.73;20.23;;;1.20;99.90;;;;;;5491875;26;20333;-67
2024/04/18 02:25:17;;;;;;;49.97;19.93;;;1.10;99.90;;;;;;5508517;25;20634;-66
2024/04/18 02:28:07;;;;;;;49.20;19.73;;;1.10;99.90;;;;;;5499205;26;20276;-66
2024/04/18 02:30:56;;;;;;;47.37;19.20;;;1.00;99.90;;;;;;5508566;26;20762;-66
2024/04/18 02:33:48;;;;;;;48.13;20.30;;;0.90;99.90;;;;;;5511546;26;20320;-66
2024/04/18 02:36:35;;;;;;;52.00;19.67;;;0.80;99.90;;;;;;5502969;26;20315;-67
2024/04/18 02:39:24;;;;;;;45.30;19.20;;;0.80;99.90;;;;;;5498179;26;20229;-66
2024/04/18 02:42:11;;;;;;;47.70;18.50;;;0.70;97.40;;;;;;5513528;26;20235;-66
2024/04/18 02:45:00;;;;;;;42.73;18.17;;;0.70;90.40;;;;;;5478376;26;20295;-66
2024/04/18 02:47:47;;;;;;;39.70;16.93;;;0.60;82.60;;;;;;5503893;26;20221;-66
2024/04/18 02:50:39;;;;;;;41.47;17.00;;;0.50;71.20;;;;;;5501615;26;20705;-66
2024/04/18 02:53:26;;;;;;;38.27;16.50;;;0.40;64.80;;;;;;5516287;25;20611;-66
2024/04/18 02:56:16;;;;;;;41.33;17.10;;;0.40;60.40;;;;;;5550547;25;20230;-66
2024/04/18 02:59:05;;;;;;;42.17;17.33;;;0.40;58.40;;;;;;5545410;25;20319;-66
2024/04/18 03:01:52;;;;;;;46.37;18.30;;;0.40;53.60;;;;;;5530199;25;20227;-66
2024/04/18 03:04:41;;;;;;;38.93;17.27;;;0.40;47.00;;;;;;5532079;25;20222;-67
2024/04/18 03:07:30;;;;;;;42.80;17.57;;;0.30;31.50;;;;;;5559083;25;20698;-67
2024/04/18 03:10:20;;;;;;;38.60;16.87;;;0.20;18.90;;;;;;5557861;25;20268;-67
2024/04/18 03:13:06;;;;;;;37.57;16.00;;;0.20;13.70;;;;;;5536075;25;20244;-67
2024/04/18 03:15:56;;;;;;;35.70;16.50;;;0.20;11.00;;;;;;5549530;25;20325;-67
2024/04/18 03:18:42;;;;;;;32.17;14.33;;;0.10;3.90;;;;;;5547691;25;20694;-67
2024/04/18 03:21:32;;;;;;;37.20;16.77;;;0.20;1.00;;;;;;5547581;25;20219;-67
2024/04/18 03:24:22;;;;;;;40.87;16.17;;;0.10;1.00;;;;;;5546006;25;20338;-66
2024/04/18 03:27:11;;;;;;;40.93;16.73;;;0.00;1.00;;;;;;5546743;25;20266;-66
2024/04/18 03:29:58;;;;;;;39.13;15.93;;;0.00;1.00;;;;;;5523480;25;20239;-67
2024/04/18 03:32:47;;;;;;;39.83;18.03;;;0.10;1.00;;;;;;5560780;25;20234;-66
2024/04/18 03:35:37;;;;;;;42.03;15.83;;;0.10;1.00;;;;;;5542942;25;20358;-67
2024/04/18 03:38:26;;;;;;;44.87;18.17;;;0.20;1.00;;;;;;5539675;25;20641;-66
2024/04/18 03:41:18;;;;;;;46.57;18.80;;;0.30;1.00;;;;;;5542773;25;20334;-67
2024/04/18 03:44:08;;;;;;;50.83;21.20;;;0.30;1.00;;;;;;5527651;25;20590;-66
2024/04/18 03:46:57;;;;;;;69.37;21.47;;;0.40;1.00;;;;;;5552866;25;20286;-67
2024/04/18 03:49:47;;;;;;;73.20;21.43;;;0.50;1.00;;;;;;5545331;25;20290;-67
2024/04/18 03:52:33;;;;;;;63.03;22.00;;;0.50;17.00;;;;;;5556949;25;20716;-67
2024/04/18 03:55:23;;;;;;;84.60;24.17;;;0.60;28.90;;;;;;5535496;25;20227;-66
2024/04/18 03:58:12;;;;;;;158.57;25.03;;;0.70;45.20;;;;;;5516715;25;20239;-67
2024/04/18 04:01:02;;;;;;;94.33;23.30;;;0.70;75.70;;;;;;5508948;26;20314;-67
2024/04/18 04:03:48;;;;;;;200.63;26.17;;;0.70;96.70;;;;;;5499875;26;20229;-67
2024/04/18 04:06:38;;;;;;;169.30;27.73;;;0.70;99.90;;;;;;5499080;26;20223;-68
2024/04/18 04:09:24;;;;;;;133.20;25.67;;;0.70;99.90;;;;;;5498118;26;20767;-67
2024/04/18 04:12:13;;;;;;;89.13;26.20;;;0.70;99.90;;;;;;5503488;26;20334;-67
2024/04/18 04:15:03;;;;;;;93.87;24.10;;;0.70;99.90;;;;;;5496481;26;20283;-67
2024/04/18 04:17:53;;;;;;;148.90;27.90;;;0.70;99.90;;;;;;5492530;26;20320;-67
2024/04/18 04:20:40;;;;;;;118.57;25.43;;;0.50;99.90;;;;;;5498595;26;20229;-67
2024/04/18 04:23:30;;;;;;;95.67;23.67;;;0.60;99.90;;;;;;5483855;26;20367;-67
2024/04/18 04:26:16;;;;;;;78.10;21.57;;;0.70;99.90;;;;;;5507130;25;20601;-66
2024/04/18 04:29:06;;;;;;;88.57;21.73;;;0.80;99.90;;;;;;5510269;26;20223;-66
2024/04/18 04:31:58;;;;;;;72.03;21.70;;;0.70;99.90;;;;;;5490030;26;20342;-67
2024/04/18 04:34:44;;;;;;;91.27;22.83;;;0.90;99.90;;;;;;5490420;26;20330;-66
2024/04/18 04:37:34;;;;;;;72.17;20.33;;;0.90;99.90;;;;;;5498421;25;20715;-67
2024/04/18 04:40:20;;;;;;;86.57;20.93;;;1.00;99.90;;;;;;5508457;26;20287;-66
2024/04/18 04:43:10;;;;;;;81.20;20.30;;;0.90;99.90;;;;;;5505719;26;20321;-66
2024/04/18 04:45:56;;;;;;;80.40;20.00;;;0.90;99.90;;;;;;5514526;26;20273;-67
2024/04/18 04:48:48;;;;;;;71.70;18.87;;;1.00;99.90;;;;;;5518150;26;20230;-66
2024/04/18 04:51:35;;;;;;;83.27;22.00;;;1.00;99.90;;;;;;5491003;26;20282;-66
2024/04/18 04:54:24;;;;;;;84.43;21.60;;;0.90;99.90;;;;;;5499653;25;20337;-67
2024/04/18 04:57:11;;;;;;;53.63;19.90;;;1.00;99.90;;;;;;5546522;25;20280;-66
2024/04/18 05:00:00;;;;;;;56.97;20.27;;;1.10;99.90;;;;;;5553163;25;20218;-67
2024/04/18 05:02:47;;;;;;;56.73;19.50;;;1.20;99.90;;;;;;5543810;25;20222;-66
2024/04/18 05:05:39;;;;;;;52.33;18.90;;;1.10;99.90;;;;;;5538439;25;20219;-67
2024/04/18 05:08:28;;;;;;;49.47;19.87;;;1.30;99.90;;;;;;5552641;25;20239;-66
2024/04/18 05:11:15;;;;;;;50.47;19.60;;;1.40;99.90;;;;;;5542056;25;20567;-67
2024/04/18 05:14:04;;;;;;;46.80;19.60;;;1.40;99.90;;;;;;5540518;25;20334;-66
2024/04/18 05:16:51;;;;;;;45.13;18.07;;;1.40;99.90;;;;;;5541834;25;20235;-66
2024/04/18 05:19:40;;;;;;;48.40;19.27;;;1.50;99.90;;;;;;5545173;25;20815;-67
2024/04/18 05:22:32;;;;;;;40.17;17.57;;;1.60;99.90;;;;;;5538661;25;20297;-67
2024/04/18 05:25:19;;;;;;;40.83;16.23;;;1.70;99.90;;;;;;5531284;25;20291;-66
2024/04/18 05:28:19;;;;;;;40.07;17.60;;;1.70;99.90;;;;;;5552718;25;20217;-66
2024/04/18 05:31:06;;;;;;;43.40;18.10;;;1.80;99.90;;;;;;5538766;25;20287;-66
2024/04/18 05:33:55;;;;;;;40.00;17.83;;;1.90;99.90;;;;;;5547733;25;20289;-67
2024/04/18 05:36:43;;;;;;;41.80;17.57;;;2.00;99.90;;;;;;5547586;25;20342;-66
2024/04/18 05:39:35;;;;;;;37.53;17.17;;;2.20;99.90;;;;;;5534029;25;20293;-67
2024/04/18 05:42:25;;;;;;;37.97;16.70;;;2.30;95.60;;;;;;5550829;25;20231;-67
2024/04/18 05:45:14;;;;;;;39.83;18.13;;;2.50;95.40;;;;;;5548941;25;20299;-67
2024/04/18 05:48:03;;;;;;;37.90;18.70;;;2.70;98.80;;;;;;5539587;25;20239;-68
2024/04/18 05:50:53;;;;;;;41.57;18.53;;;2.90;89.30;;;;;;5541621;25;20285;-66
2024/04/18 05:53:43;;;;;;;50.70;20.07;;;3.00;72.10;;;;;;5545942;25;20306;-67
2024/04/18 05:56:35;;;;;;;42.53;19.03;;;3.20;18.10;;;;;;5500927;25;20336;-66
2024/04/18 05:59:24;;;;;;;43.10;18.97;;;3.30;1.00;;;;;;5503255;26;20707;-66
2024/04/18 06:02:13;;;;;;;44.27;18.20;;;3.50;1.00;;;;;;5506594;25;20787;-66
2024/04/18 06:05:03;;;;;;;39.97;18.30;;;3.80;1.00;;;;;;5491174;26;20232;-66
2024/04/18 06:07:52;;;;;;;44.00;20.20;;;3.90;44.50;;;;;;5509215;25;20227;-66
2024/04/18 06:10:41;;;;;;;43.40;18.73;;;4.00;99.90;;;;;;5513150;26;20239;-66
2024/04/18 06:13:36;;;;;;;52.70;22.47;;;4.20;1.00;;;;;;5489130;25;20237;-66
2024/04/18 06:16:26;;;;;;;50.67;22.23;;;4.40;99.90;;;;;;5500121;25;20269;-66
2024/04/18 06:19:15;;;;;;;84.00;34.77;;;4.80;99.90;;;;;;5500090;25;20288;-66
2024/04/18 06:22:04;;;;;;;75.90;32.80;;;5.00;1.00;;;;;;5510222;25;20235;-65
2024/04/18 06:24:54;;;;;;;80.80;31.70;;;5.10;99.90;;;;;;5504275;25;20297;-66
2024/04/18 06:27:43;;;;;;;65.30;29.57;;;5.10;99.90;;;;;;5496755;25;20830;-65
2024/04/18 06:30:35;;;;;;;61.77;27.33;;;5.20;1.00;;;;;;5503523;25;20361;-66
2024/04/18 06:33:25;;;;;;;53.57;24.40;;;5.40;90.00;;;;;;5501599;25;20786;-66
2024/04/18 06:36:15;;;;;;;43.03;20.57;;;5.30;1.00;;;;;;5508687;25;20221;-65
2024/04/18 06:39:06;;;;;;;67.83;29.30;;;5.20;2.40;;;;;;5492800;25;20283;-66
2024/04/18 06:41:56;;;;;;;66.77;28.03;;;5.30;1.00;;;;;;5503659;25;20239;-65
2024/04/18 06:44:45;;;;;;;79.57;32.67;;;5.40;1.00;;;;;;5499597;25;20231;-66
2024/04/18 06:47:37;;;;;;;68.47;29.57;;;5.50;99.90;;;;;;5505727;25;20274;-66
2024/04/18 06:50:26;;;;;;;61.60;24.23;;;5.40;1.00;;;;;;5498666;25;20289;-65
2024/04/18 06:53:16;;;;;;;24.83;11.07;;;5.30;99.90;;;;;;5495468;25;20338;-65
2024/04/18 06:56:06;;;;;;;47.23;21.87;;;5.20;1.00;;;;;;5507790;25;20315;-65
2024/04/18 06:58:55;;;;;;;46.90;21.00;;;5.30;1.00;;;;;;5506281;25;20795;-65
2024/04/18 07:01:45;;;;;;;40.40;18.70;;;5.30;99.90;;;;;;5492265;25;20251;-65
2024/04/18 07:04:38;;;;;;;24.07;12.17;;;5.50;99.90;;;;;;5513335;25;20296;-65
2024/04/18 07:07:27;;;;;;;56.77;26.17;;;6.00;99.90;;;;;;5506798;26;20787;-65
2024/04/18 07:10:17;;;;;;;51.50;26.63;;;6.00;1.00;;;;;;5507438;26;20317;-65
2024/04/18 07:13:06;;;;;;;39.40;15.43;;;5.60;99.90;;;;;;5505705;25;20228;-65
2024/04/18 07:15:56;;;;;;;51.70;24.70;;;5.70;1.00;;;;;;5500625;25;20231;-65
2024/04/18 07:18:45;;;;;;;41.47;18.30;;;5.50;19.50;;;;;;5488517;25;20612;-66
2024/04/18 07:21:37;;;;;;;48.23;22.90;;;5.40;1.00;;;;;;5511848;26;20332;-67
2024/04/18 07:24:26;;;;;;;44.60;20.30;;;5.60;1.00;;;;;;5491433;26;20293;-65
2024/04/18 07:27:16;;;;;;;56.53;26.03;;;5.50;99.90;;;;;;5506416;26;20228;-65
2024/04/18 07:30:05;;;;;;;52.40;23.23;;;5.30;1.00;;;;;;5517207;25;20281;-66
2024/04/18 07:32:55;;;;;;;60.17;24.47;;;5.40;1.00;;;;;;5490248;25;20924;-67
2024/04/18 07:35:44;;;;;;;35.97;16.47;;;5.40;1.00;;;;;;5493240;25;20236;-66
2024/04/18 07:38:36;;;;;;;15.43;7.40;;;5.30;99.90;;;;;;5501128;25;20653;-65
2024/04/18 07:41:25;;;;;;;31.33;14.30;;;5.50;1.00;;;;;;5494229;25;20239;-65
2024/04/18 07:44:15;;;;;;;32.53;15.47;;;5.70;99.90;;;;;;5498846;25;20304;-66
2024/04/18 07:47:04;;;;;;;36.27;16.07;;;6.20;99.90;;;;;;5490345;25;20236;-65
2024/04/18 07:49:53;;;;;;;30.00;15.13;;;6.40;1.00;;;;;;5489547;26;20238;-65
2024/04/18 07:52:43;;;;;;;9.57;5.27;;;6.90;1.00;;;;;;5493872;26;20266;-65
2024/04/18 07:55:35;;;;;;;24.17;11.40;;;7.00;1.00;;;;;;5489829;25;20396;-65
2024/04/18 07:58:26;;;;;;;26.63;13.60;;;7.30;1.00;;;;;;5531561;25;20239;-66
2024/04/18 08:01:16;;;;;;;23.47;10.97;;;7.70;1.00;;;;;;5488718;25;20823;-65
2024/04/18 08:04:05;;;;;;;21.53;7.80;;;8.10;1.00;;;;;;5513208;25;20278;-66
2024/04/18 08:06:54;;;;;;;27.97;11.17;;;8.20;1.00;;;;;;5519005;25;20284;-65
2024/04/18 08:09:44;;;;;;;31.27;14.53;;;7.90;1.00;;;;;;5520540;25;20316;-65
2024/04/18 08:12:36;;;;;;;27.60;12.40;;;7.70;1.00;;;;;;5505229;25;20301;-65
2024/04/18 08:15:25;;;;;;;26.10;9.17;;;7.20;1.00;;;;;;5520038;25;20274;-65
2024/04/18 08:18:16;;;;;;;23.50;9.97;;;7.00;1.00;;;;;;5516664;25;20231;-65
2024/04/18 08:21:06;;;;;;;20.83;9.47;;;7.10;1.00;;;;;;5523369;25;20302;-65
2024/04/18 08:23:57;;;;;;;14.97;8.03;;;7.20;1.00;;;;;;5523104;25;20826;-65
2024/04/18 08:26:46;;;;;;;15.27;6.37;;;7.70;99.90;;;;;;5529093;25;20278;-66
2024/04/18 08:29:38;;;;;;;7.97;3.73;;;7.80;99.90;;;;;;5514966;25;20241;-65
2024/04/18 08:32:28;;;;;;;13.23;5.80;;;8.10;99.90;;;;;;5503982;25;20281;-66
2024/04/18 08:35:19;;;;;;;11.17;4.77;;;8.70;1.00;;;;;;5509066;25;20239;-65
2024/04/18 08:38:08;;;;;;;7.30;4.27;;;9.10;1.00;;;;;;5495549;25;20292;-65
2024/04/18 08:40:59;;;;;;;10.57;6.00;;;9.50;1.00;;;;;;5526091;25;20247;-65
2024/04/18 08:43:49;;;;;;;15.13;7.03;;;8.70;1.00;;;;;;5525611;25;20341;-65
2024/04/18 08:46:41;;;;;;;14.63;7.17;;;7.80;40.70;;;;;;5498144;25;20228;-65
2024/04/18 08:49:30;;;;;;;7.80;2.87;;;7.90;47.50;;;;;;5502088;25;20701;-65
2024/04/18 08:52:19;;;;;;;9.93;6.17;;;7.70;1.00;;;;;;5517324;25;20229;-65
2024/04/18 08:55:09;;;;;;;16.83;8.67;;;7.10;99.90;;;;;;5522131;25;20298;-65
2024/04/18 08:58:04;;;;;;;13.27;6.37;;;7.50;99.90;;;;;;5545382;25;20231;-66
2024/04/18 09:00:53;;;;;;;13.47;6.37;;;7.70;1.00;;;;;;5531214;25;20955;-65
2024/04/18 09:03:46;;;;;;;15.43;7.57;;;8.30;99.90;;;;;;5552244;25;20286;-66
2024/04/18 09:06:35;;;;;;;12.80;5.67;;;8.20;1.00;;;;;;5533706;25;20268;-66
2024/04/18 09:09:25;;;;;;;13.87;5.90;;;8.20;1.00;;;;;;5561510;25;20347;-66
2024/04/18 09:12:15;;;;;;;11.77;6.67;;;8.30;1.00;;;;;;5527467;25;20230;-66
2024/04/18 09:15:04;;;;;;;13.97;5.87;;;8.00;99.90;;;;;;5537812;25;20323;-65
2024/04/18 09:18:03;;;;;;;20.60;7.43;;;8.50;99.90;;;;;;5533996;25;20878;-65
2024/04/18 09:20:55;;;;;;;9.47;5.43;;;8.90;1.00;;;;;;5566137;25;20271;-66
2024/04/18 09:23:44;;;;;;;28.30;11.03;;;9.00;1.00;;;;;;5542516;25;20339;-65
2024/04/18 09:26:34;;;;;;;10.97;5.27;;;8.80;1.00;;;;;;5541627;25;20398;-65
2024/04/18 09:29:24;;;;;;;21.03;10.43;;;8.60;1.00;;;;;;5550563;25;20236;-66
2024/04/18 09:32:14;;;;;;;16.27;9.07;;;9.40;1.00;;;;;;5565218;25;20796;-65
2024/04/18 09:35:04;;;;;;;34.77;15.60;;;9.30;1.00;;;;;;5511246;25;20235;-65
2024/04/18 09:37:56;;;;;;;29.53;9.63;;;8.80;1.00;;;;;;5560119;25;20226;-65
2024/04/18 09:40:46;;;;;;;33.13;13.30;;;8.30;1.00;;;;;;5562622;25;20233;-65
2024/04/18 09:43:39;;;;;;;30.10;15.93;;;7.90;1.00;;;;;;5560118;25;20271;-65
2024/04/18 09:46:28;;;;;;;28.27;15.63;;;7.30;64.20;;;;;;5556831;25;20810;-65
2024/04/18 09:49:18;;;;;;;34.10;15.20;;;7.20;99.90;;;;;;5548047;25;20226;-65
2024/04/18 09:52:07;;;;;;;31.97;15.87;;;7.30;99.90;;;;;;5546517;25;20230;-65
2024/04/18 09:54:59;;;;;;;14.80;7.10;;;7.10;99.90;;;;;;5541748;25;20296;-65
2024/04/18 09:57:49;;;;;;;16.30;8.27;;;7.30;99.90;;;;;;5531754;25;20309;-65
2024/04/18 10:00:38;;;;;;;16.70;9.33;;;7.40;99.90;;;;;;5546816;25;20735;-65
2024/04/18 10:03:27;;;;;;;21.43;9.73;;;7.20;1.00;;;;;;5553933;25;20227;-65
2024/04/18 10:06:17;;;;;;;21.10;6.47;;;7.50;1.00;;;;;;5521754;25;20242;-67
2024/04/18 10:09:07;;;;;;;23.27;9.93;;;7.80;1.00;;;;;;5512860;25;20747;-65
2024/04/18 10:11:59;;;;;;;25.13;10.30;;;8.90;89.10;;;;;;5557167;25;20238;-65
2024/04/18 10:14:51;;;;;;;9.27;4.20;;;10.00;21.70;;;;;;5553945;25;20611;-65
2024/04/18 10:17:40;;;;;;;6.63;2.67;;;9.40;1.00;;;;;;5557947;25;20221;-65
2024/04/18 10:20:30;;;;;;;13.27;6.23;;;8.80;1.00;;;;;;5565063;25;20225;-66
2024/04/18 10:23:20;;;;;;;11.53;4.13;;;8.70;1.00;;;;;;5555441;25;20230;-66
2024/04/18 10:26:16;;;;;;;12.60;5.63;;;8.90;1.00;;;;;;5572379;25;20327;-65
2024/04/18 10:29:25;;;;;;;6.90;3.37;;;9.60;1.00;;;;;;5547703;25;20241;-65
2024/04/18 10:32:15;;;;;;;9.57;5.20;;;9.80;1.00;;;;;;5549487;25;20242;-65
2024/04/18 10:35:05;;;;;;;14.60;6.83;;;9.40;1.00;;;;;;5563372;25;20346;-65
2024/04/18 10:37:54;;;;;;;9.10;3.90;;;9.30;1.00;;;;;;5564866;25;20646;-66
2024/04/18 10:40:59;;;;;;;11.30;4.17;;;9.30;1.00;;;;;;5520167;25;20312;-65
2024/04/18 10:43:48;;;;;;;13.13;5.70;;;8.90;1.00;;;;;;5531577;25;20238;-65
2024/04/18 10:46:41;;;;;;;3.43;1.87;;;8.30;1.00;;;;;;5561814;25;20815;-65
2024/04/18 10:49:31;;;;;;;9.07;4.97;;;7.90;1.00;;;;;;5575607;25;20816;-65
2024/04/18 10:52:20;;;;;;;7.93;4.00;;;7.60;1.00;;;;;;5527371;25;20329;-65
2024/04/18 10:55:10;;;;;;;14.93;6.70;;;7.50;1.00;;;;;;5549715;25;20268;-65
2024/04/18 10:57:59;;;;;;;9.67;5.00;;;7.20;41.70;;;;;;5521672;25;20719;-65
2024/04/18 11:00:48;;;;;;;5.90;2.50;;;7.20;99.90;;;;;;5534630;25;20261;-65
2024/04/18 11:03:41;;;;;;;16.33;8.30;;;7.00;99.90;;;;;;5542985;25;20226;-66
2024/04/18 11:06:30;;;;;;;25.90;10.83;;;6.90;99.90;;;;;;5551772;25;20275;-65
2024/04/18 11:09:20;;;;;;;12.93;6.70;;;7.00;99.90;;;;;;5537752;25;20281;-66
2024/04/18 11:12:10;;;;;;;17.73;8.27;;;7.30;99.90;;;;;;5550846;25;20287;-66
2024/04/18 11:14:59;;;;;;;12.00;4.87;;;7.80;99.90;;;;;;5528538;25;20232;-65
2024/04/18 11:17:48;;;;;;;8.93;5.00;;;7.90;23.30;;;;;;5564240;25;20337;-65
2024/04/18 11:20:40;;;;;;;13.27;5.30;;;8.10;1.00;;;;;;5555546;25;20233;-65
2024/04/18 11:23:30;;;;;;;10.43;6.60;;;8.30;1.00;;;;;;5547157;25;20295;-65
2024/04/18 11:26:21;;;;;;;11.07;5.53;;;8.30;1.00;;;;;;5546117;25;20242;-65
2024/04/18 11:29:10;;;;;;;12.57;5.97;;;8.70;1.00;;;;;;5574260;25;20233;-65
2024/04/18 11:32:07;;;;;;;11.43;6.20;;;9.00;1.00;;;;;;5522399;25;20227;-65
2024/04/18 11:34:57;;;;;;;14.23;6.83;;;8.80;1.00;;;;;;5545858;25;20283;-65
2024/04/18 11:37:49;;;;;;;15.73;6.83;;;9.20;1.00;;;;;;5556398;25;20768;-65
2024/04/18 11:40:38;;;;;;;9.73;5.60;;;9.00;1.00;;;;;;5543570;25;20341;-66
2024/04/18 11:43:28;;;;;;;10.77;5.70;;;9.20;1.00;;;;;;5552260;25;20301;-65
2024/04/18 11:46:17;;;;;;;7.67;3.53;;;9.20;1.00;;;;;;5553017;25;20242;-65
2024/04/18 11:49:06;;;;;;;10.00;3.57;;;9.60;1.00;;;;;;5539111;25;20322;-64
2024/04/18 11:51:56;;;;;;;9.90;4.93;;;9.60;1.00;;;;;;5541229;25;20795;-65
2024/04/18 11:54:48;;;;;;;9.40;5.13;;;9.70;1.00;;;;;;5545858;25;20230;-65
2024/04/18 11:57:37;;;;;;;14.13;5.10;;;9.60;1.00;;;;;;5532399;25;20238;-65
2024/04/18 12:00:27;;;;;;;7.77;5.07;;;9.40;1.00;;;;;;5538880;25;20292;-65
2024/04/18 12:03:16;;;;;;;12.03;5.00;;;8.50;1.00;;;;;;5571987;25;20225;-64
2024/04/18 12:06:07;;;;;;;10.80;5.37;;;8.20;1.00;;;;;;5543649;25;20234;-65
2024/04/18 12:08:56;;;;;;;9.50;5.77;;;7.60;1.00;;;;;;5563528;25;20328;-65
2024/04/18 12:11:48;;;;;;;11.50;6.20;;;7.40;1.00;;;;;;5553010;25;20229;-65
2024/04/18 12:14:38;;;;;;;9.40;4.73;;;7.20;1.00;;;;;;5552749;25;20330;-64
2024/04/18 12:17:27;;;;;;;12.00;5.90;;;7.20;99.90;;;;;;5555024;25;20227;-65
2024/04/18 12:20:17;;;;;;;14.07;6.10;;;6.80;98.70;;;;;;5538075;25;20624;-64
2024/04/18 12:23:06;;;;;;;15.63;7.53;;;6.60;99.90;;;;;;5545108;25;20340;-65
2024/04/18 12:25:55;;;;;;;20.30;8.17;;;6.60;99.90;;;;;;5554144;25;20276;-64
2024/04/18 12:28:48;;;;;;;12.03;6.40;;;6.70;1.00;;;;;;5555396;25;20228;-64
2024/04/18 12:31:37;;;;;;;20.80;7.53;;;6.60;1.00;;;;;;5551382;25;20657;-65
2024/04/18 12:34:27;;;;;;;29.17;9.73;;;6.70;1.00;;;;;;5559415;25;20237;-64
2024/04/18 12:37:16;;;;;;;24.13;8.80;;;7.00;1.00;;;;;;5533427;25;20223;-64
2024/04/18 12:40:06;;;;;;;13.07;6.30;;;7.20;1.00;;;;;;5522365;25;20246;-64
2024/04/18 12:42:56;;;;;;;13.40;5.40;;;7.40;1.00;;;;;;5548915;25;20258;-64
2024/04/18 12:45:48;;;;;;;10.47;4.73;;;7.70;99.90;;;;;;5538085;25;20235;-64
2024/04/18 12:48:37;;;;;;;8.40;4.23;;;7.90;99.90;;;;;;5531352;25;20229;-64
2024/04/18 12:51:27;;;;;;;7.43;4.50;;;8.40;44.50;;;;;;5521276;25;20290;-64
2024/04/18 12:54:16;;;;;;;8.13;4.47;;;9.60;39.50;;;;;;5551862;25;20229;-64
2024/04/18 12:57:06;;;;;;;7.90;4.50;;;9.90;1.00;;;;;;5545025;25;20225;-64
2024/04/18 12:59:55;;;;;;;8.33;4.53;;;10.10;1.00;;;;;;5529530;25;20571;-64
2024/04/18 13:02:47;;;;;;;11.30;4.73;;;10.10;1.00;;;;;;5538162;25;20271;-65
2024/04/18 13:05:36;;;;;;;3.40;1.90;;;9.90;1.00;;;;;;5543160;25;20231;-64
2024/04/18 13:08:26;;;;;;;7.27;3.40;;;9.70;1.00;;;;;;5530048;25;20806;-65
2024/04/18 13:11:15;;;;;;;2.70;1.37;;;9.10;1.00;;;;;;5527995;25;20812;-64
2024/04/18 13:14:05;;;;;;;7.37;3.87;;;9.20;1.00;;;;;;5539974;25;20764;-64
2024/04/18 13:16:54;;;;;;;8.90;4.53;;;9.40;1.00;;;;;;5541989;25;20985;-65
2024/04/18 13:19:46;;;;;;;6.63;3.90;;;9.80;1.00;;;;;;5534660;25;20282;-64
2024/04/18 13:22:37;;;;;;;5.67;2.83;;;9.90;1.00;;;;;;5547809;25;20604;-65
2024/04/18 13:25:27;;;;;;;7.80;3.90;;;10.10;1.00;;;;;;5536432;25;20234;-65
2024/04/18 13:28:16;;;;;;;6.90;3.30;;;9.40;1.00;;;;;;5518642;25;20562;-65
2024/04/18 13:31:10;;;;;;;6.07;3.10;;;9.10;1.00;;;;;;5495929;25;20234;-64
2024/04/18 13:34:00;;;;;;;5.70;3.80;;;9.00;1.00;;;;;;5548832;25;20931;-65
2024/04/18 13:36:52;;;;;;;9.70;4.00;;;9.30;1.00;;;;;;5520963;25;20328;-66
2024/04/18 13:39:44;;;;;;;6.80;3.00;;;9.60;1.00;;;;;;5523310;25;20231;-64
2024/04/18 13:42:33;;;;;;;5.70;2.50;;;9.30;1.00;;;;;;5531122;25;21173;-64
2024/04/18 13:45:22;;;;;;;8.43;3.57;;;9.00;1.00;;;;;;5544665;25;20221;-65
2024/04/18 13:48:12;;;;;;;5.60;3.40;;;8.80;1.00;;;;;;5528896;25;20273;-64
2024/04/18 13:51:01;;;;;;;6.63;3.83;;;8.80;1.00;;;;;;5536563;25;20729;-65
2024/04/18 13:53:54;;;;;;;6.67;3.60;;;9.00;1.00;;;;;;5530283;25;20279;-65
2024/04/18 13:56:43;;;;;;;6.53;3.47;;;9.00;1.00;;;;;;5537832;25;20276;-65
2024/04/18 13:59:33;;;;;;;7.60;3.50;;;9.20;1.00;;;;;;5549415;25;20809;-64
2024/04/18 14:02:23;;;;;;;4.83;3.27;;;9.00;1.00;;;;;;5543038;25;20344;-65
2024/04/18 14:05:14;;;;;;;5.17;3.20;;;8.90;1.00;;;;;;5536456;25;20335;-64
2024/04/18 14:08:03;;;;;;;7.97;3.80;;;8.70;1.00;;;;;;5518396;25;20294;-65
2024/04/18 14:10:55;;;;;;;7.37;3.47;;;8.20;1.00;;;;;;5519727;25;20630;-65
2024/04/18 14:13:45;;;;;;;7.80;3.63;;;8.10;1.00;;;;;;5538216;25;20231;-65
2024/04/18 14:19:39;;;;;;;8.03;3.93;;;6.50;99.90;;;;;;5529087;25;20413;-65
2024/04/18 14:22:29;;;;;;;9.87;4.77;;;5.70;99.90;;;;;;5548695;25;20338;-65
2024/04/18 14:25:18;;;;;;;10.10;4.60;;;5.60;1.00;;;;;;5523670;25;20604;-65
2024/04/18 14:28:10;;;;;;;3.63;2.73;;;5.50;1.00;;;;;;5550777;25;20235;-66
2024/04/18 14:31:00;;;;;;;9.87;5.37;;;5.20;1.00;;;;;;5556173;25;20815;-65
2024/04/18 14:33:49;;;;;;;7.83;5.47;;;4.90;99.90;;;;;;5521953;25;20227;-66
2024/04/18 14:36:39;;;;;;;11.83;6.37;;;4.80;99.90;;;;;;5538455;25;20281;-65
2024/04/18 14:39:28;;;;;;;7.70;4.60;;;4.80;1.00;;;;;;5552383;25;20266;-65
2024/04/18 14:42:18;;;;;;;5.90;3.07;;;4.70;1.00;;;;;;5528831;25;20632;-67
2024/04/18 14:45:11;;;;;;;12.20;6.77;;;4.60;1.00;;;;;;5528997;25;20242;-65
2024/04/18 14:48:00;;;;;;;13.17;7.47;;;4.60;1.00;;;;;;5538809;25;20281;-65